sensor_id;sensor_type;location;lat;lon;timestamp;temperature;humidity
7934;DHT22;4012;48.896;9.192;2022-12-18T00:02:16;-6.20;99.90
7934;DHT22;4012;48.896;9.192;2022-12-18T00:04:42;-6.20;99.90
7934;DHT22;4012;48.896;9.192;2022-12-18T00:07:08;-6.20;99.90
7934;DHT22;4012;48.896;9.192;2022-12-18T00:09:36;-6.10;99.90
7934;DHT22;4012;48.896;9.192;2022-12-18T00:12:01;-6.10;99.90
7934;DHT22;4012;48.896;9.192;2022-12-18T00:14:27;-6.10;99.90
7934;DHT22;4012;48.896;9.192;2022-12-18T00:16:53;-6.10;99.90
7934;DHT22;4012;48.896;9.192;2022-12-18T00:19:18;-6.10;99.90
7934;DHT22;4012;48.896;9.192;2022-12-18T00:21:44;-6.00;99.90
7934;DHT22;4012;48.896;9.192;2022-12-18T00:24:10;-6.10;99.90
7934;DHT22;4012;48.896;9.192;2022-12-18T00:26:38;-6.10;99.90
7934;DHT22;4012;48.896;9.192;2022-12-18T00:29:10;-6.10;99.90
7934;DHT22;4012;48.896;9.192;2022-12-18T00:31:37;-6.10;99.90
7934;DHT22;4012;48.896;9.192;2022-12-18T00:34:03;-6.10;99.90
7934;DHT22;4012;48.896;9.192;2022-12-18T00:36:31;-6.00;99.90
7934;DHT22;4012;48.896;9.192;2022-12-18T00:38:59;-6.10;99.90
7934;DHT22;4012;48.896;9.192;2022-12-18T00:41:26;-6.20;99.90
7934;DHT22;4012;48.896;9.192;2022-12-18T00:44:13;-6.40;99.90
7934;DHT22;4012;48.896;9.192;2022-12-18T00:46:39;-6.60;99.90
7934;DHT22;4012;48.896;9.192;2022-12-18T00:49:05;-6.60;99.90
7934;DHT22;4012;48.896;9.192;2022-12-18T00:51:30;-6.70;99.90
7934;DHT22;4012;48.896;9.192;2022-12-18T00:53:56;-6.70;99.90
7934;DHT22;4012;48.896;9.192;2022-12-18T00:56:22;-6.70;99.90
7934;DHT22;4012;48.896;9.192;2022-12-18T00:58:48;-6.80;99.90
7934;DHT22;4012;48.896;9.192;2022-12-18T01:01:13;-6.80;99.90
7934;DHT22;4012;48.896;9.192;2022-12-18T01:03:39;-6.80;99.90
7934;DHT22;4012;48.896;9.192;2022-12-18T01:06:09;-6.80;99.90
7934;DHT22;4012;48.896;9.192;2022-12-18T01:08:35;-6.90;99.90
7934;DHT22;4012;48.896;9.192;2022-12-18T01:11:07;-6.90;99.90
7934;DHT22;4012;48.896;9.192;2022-12-18T01:13:34;-6.90;99.90
7934;DHT22;4012;48.896;9.192;2022-12-18T01:15:59;-6.90;99.90
7934;DHT22;4012;48.896;9.192;2022-12-18T01:18:25;-7.00;99.90
7934;DHT22;4012;48.896;9.192;2022-12-18T01:20:50;-7.00;99.90
7934;DHT22;4012;48.896;9.192;2022-12-18T01:23:16;-7.10;99.90
7934;DHT22;4012;48.896;9.192;2022-12-18T01:25:42;-7.10;99.90
7934;DHT22;4012;48.896;9.192;2022-12-18T01:28:07;-7.10;99.90
7934;DHT22;4012;48.896;9.192;2022-12-18T01:30:33;-7.10;99.90
7934;DHT22;4012;48.896;9.192;2022-12-18T01:32:58;-7.10;99.90
7934;DHT22;4012;48.896;9.192;2022-12-18T01:35:24;-7.10;99.90
7934;DHT22;4012;48.896;9.192;2022-12-18T01:37:54;-7.10;99.90
7934;DHT22;4012;48.896;9.192;2022-12-18T01:40:19;-7.10;99.90
7934;DHT22;4012;48.896;9.192;2022-12-18T01:42:52;-7.10;99.90
7934;DHT22;4012;48.896;9.192;2022-12-18T01:47:59;-7.00;99.90
7934;DHT22;4012;48.896;9.192;2022-12-18T01:53:17;-6.90;99.90
7934;DHT22;4012;48.896;9.192;2022-12-18T01:55:53;-6.90;99.90
7934;DHT22;4012;48.896;9.192;2022-12-18T01:58:20;-6.90;99.90
7934;DHT22;4012;48.896;9.192;2022-12-18T02:00:47;-7.00;99.90
7934;DHT22;4012;48.896;9.192;2022-12-18T02:03:13;-6.90;99.90
7934;DHT22;4012;48.896;9.192;2022-12-18T02:05:49;-6.80;99.90
7934;DHT22;4012;48.896;9.192;2022-12-18T02:11:07;-6.80;99.90
7934;DHT22;4012;48.896;9.192;2022-12-18T02:14:02;-6.90;99.90
7934;DHT22;4012;48.896;9.192;2022-12-18T02:16:50;-6.90;99.90
7934;DHT22;4012;48.896;9.192;2022-12-18T02:27:37;-6.90;99.90
7934;DHT22;4012;48.896;9.192;2022-12-18T02:30:06;-6.90;99.90
7934;DHT22;4012;48.896;9.192;2022-12-18T02:32:37;-7.00;99.90
7934;DHT22;4012;48.896;9.192;2022-12-18T02:35:07;-6.90;99.90
7934;DHT22;4012;48.896;9.192;2022-12-18T02:37:34;-6.80;99.90
7934;DHT22;4012;48.896;9.192;2022-12-18T02:40:02;-6.90;99.90
7934;DHT22;4012;48.896;9.192;2022-12-18T02:42:29;-6.80;99.90
7934;DHT22;4012;48.896;9.192;2022-12-18T02:44:54;-6.80;99.90
7934;DHT22;4012;48.896;9.192;2022-12-18T02:47:23;-6.70;99.90
7934;DHT22;4012;48.896;9.192;2022-12-18T02:58:20;-6.70;99.90
7934;DHT22;4012;48.896;9.192;2022-12-18T03:01:00;-6.60;99.90
7934;DHT22;4012;48.896;9.192;2022-12-18T03:03:46;-6.60;99.90
7934;DHT22;4012;48.896;9.192;2022-12-18T03:09:00;-6.50;99.90
7934;DHT22;4012;48.896;9.192;2022-12-18T03:11:30;-6.40;99.90
7934;DHT22;4012;48.896;9.192;2022-12-18T03:14:19;-6.50;99.90
7934;DHT22;4012;48.896;9.192;2022-12-18T03:16:49;-6.40;99.90
7934;DHT22;4012;48.896;9.192;2022-12-18T03:19:19;-6.40;99.90
7934;DHT22;4012;48.896;9.192;2022-12-18T03:21:49;-6.40;99.90
7934;DHT22;4012;48.896;9.192;2022-12-18T03:24:17;-6.40;99.90
7934;DHT22;4012;48.896;9.192;2022-12-18T03:26:48;-6.50;99.90
7934;DHT22;4012;48.896;9.192;2022-12-18T03:29:21;-6.40;99.90
7934;DHT22;4012;48.896;9.192;2022-12-18T03:31:53;-6.50;99.90
7934;DHT22;4012;48.896;9.192;2022-12-18T03:34:27;-6.50;99.90
7934;DHT22;4012;48.896;9.192;2022-12-18T03:36:54;-6.50;99.90
7934;DHT22;4012;48.896;9.192;2022-12-18T03:39:20;-6.50;99.90
7934;DHT22;4012;48.896;9.192;2022-12-18T03:42:01;-6.40;99.90
7934;DHT22;4012;48.896;9.192;2022-12-18T03:44:38;-6.40;99.90
7934;DHT22;4012;48.896;9.192;2022-12-18T03:47:13;-6.40;99.90
7934;DHT22;4012;48.896;9.192;2022-12-18T03:50:03;-6.40;99.90
7934;DHT22;4012;48.896;9.192;2022-12-18T03:52:57;-6.40;99.90
7934;DHT22;4012;48.896;9.192;2022-12-18T03:55:25;-6.40;99.90
7934;DHT22;4012;48.896;9.192;2022-12-18T03:57:54;-6.30;99.90
7934;DHT22;4012;48.896;9.192;2022-12-18T04:00:20;-6.30;99.90
7934;DHT22;4012;48.896;9.192;2022-12-18T04:02:50;-6.30;99.90
7934;DHT22;4012;48.896;9.192;2022-12-18T04:05:18;-6.30;99.90
7934;DHT22;4012;48.896;9.192;2022-12-18T04:07:46;-6.40;99.90
7934;DHT22;4012;48.896;9.192;2022-12-18T04:10:13;-6.30;99.90
7934;DHT22;4012;48.896;9.192;2022-12-18T04:12:39;-6.20;99.90
7934;DHT22;4012;48.896;9.192;2022-12-18T04:15:06;-6.20;99.90
7934;DHT22;4012;48.896;9.192;2022-12-18T04:17:32;-6.30;99.90
7934;DHT22;4012;48.896;9.192;2022-12-18T04:19:57;-6.30;99.90
7934;DHT22;4012;48.896;9.192;2022-12-18T04:22:23;-6.40;99.90
7934;DHT22;4012;48.896;9.192;2022-12-18T04:24:49;-6.30;99.90
7934;DHT22;4012;48.896;9.192;2022-12-18T04:27:14;-6.30;99.90
7934;DHT22;4012;48.896;9.192;2022-12-18T04:29:40;-6.30;99.90
7934;DHT22;4012;48.896;9.192;2022-12-18T04:32:06;-6.30;99.90
7934;DHT22;4012;48.896;9.192;2022-12-18T04:34:32;-6.40;99.90
7934;DHT22;4012;48.896;9.192;2022-12-18T04:36:57;-6.30;99.90
7934;DHT22;4012;48.896;9.192;2022-12-18T04:39:23;-6.20;99.90
7934;DHT22;4012;48.896;9.192;2022-12-18T04:41:48;-6.20;99.90
7934;DHT22;4012;48.896;9.192;2022-12-18T04:44:14;-6.10;99.90
7934;DHT22;4012;48.896;9.192;2022-12-18T04:46:40;-6.10;99.90
7934;DHT22;4012;48.896;9.192;2022-12-18T04:49:05;-6.10;99.90
7934;DHT22;4012;48.896;9.192;2022-12-18T04:51:31;-6.20;99.90
7934;DHT22;4012;48.896;9.192;2022-12-18T04:53:59;-6.20;99.90
7934;DHT22;4012;48.896;9.192;2022-12-18T04:56:25;-6.20;99.90
7934;DHT22;4012;48.896;9.192;2022-12-18T04:58:50;-6.10;99.90
7934;DHT22;4012;48.896;9.192;2022-12-18T05:01:17;-6.20;99.90
7934;DHT22;4012;48.896;9.192;2022-12-18T05:03:43;-6.20;99.90
7934;DHT22;4012;48.896;9.192;2022-12-18T05:06:09;-6.30;99.90
7934;DHT22;4012;48.896;9.192;2022-12-18T05:08:35;-6.30;99.90
7934;DHT22;4012;48.896;9.192;2022-12-18T05:11:03;-6.30;99.90
7934;DHT22;4012;48.896;9.192;2022-12-18T05:13:29;-6.30;99.90
7934;DHT22;4012;48.896;9.192;2022-12-18T05:15:55;-6.30;99.90
7934;DHT22;4012;48.896;9.192;2022-12-18T05:18:22;-6.40;99.90
7934;DHT22;4012;48.896;9.192;2022-12-18T05:20:50;-6.40;99.90
7934;DHT22;4012;48.896;9.192;2022-12-18T05:23:15;-6.40;99.90
7934;DHT22;4012;48.896;9.192;2022-12-18T05:25:41;-6.50;99.90
7934;DHT22;4012;48.896;9.192;2022-12-18T05:28:06;-6.40;99.90
7934;DHT22;4012;48.896;9.192;2022-12-18T05:30:32;-6.40;99.90
7934;DHT22;4012;48.896;9.192;2022-12-18T05:32:58;-6.50;99.90
7934;DHT22;4012;48.896;9.192;2022-12-18T05:35:23;-6.50;99.90
7934;DHT22;4012;48.896;9.192;2022-12-18T05:37:49;-6.50;99.90
7934;DHT22;4012;48.896;9.192;2022-12-18T05:40:14;-6.60;99.90
7934;DHT22;4012;48.896;9.192;2022-12-18T05:42:40;-6.70;99.90
7934;DHT22;4012;48.896;9.192;2022-12-18T05:45:06;-6.80;99.90
7934;DHT22;4012;48.896;9.192;2022-12-18T05:47:32;-6.90;99.90
7934;DHT22;4012;48.896;9.192;2022-12-18T05:49:57;-7.10;99.90
7934;DHT22;4012;48.896;9.192;2022-12-18T05:52:23;-7.20;99.90
7934;DHT22;4012;48.896;9.192;2022-12-18T05:54:49;-7.20;99.90
7934;DHT22;4012;48.896;9.192;2022-12-18T05:57:14;-7.20;99.90
7934;DHT22;4012;48.896;9.192;2022-12-18T05:59:40;-7.20;99.90
7934;DHT22;4012;48.896;9.192;2022-12-18T06:02:05;-7.30;99.90
7934;DHT22;4012;48.896;9.192;2022-12-18T06:04:31;-7.40;99.90
7934;DHT22;4012;48.896;9.192;2022-12-18T06:06:57;-7.40;99.90
7934;DHT22;4012;48.896;9.192;2022-12-18T06:09:23;-7.40;99.90
7934;DHT22;4012;48.896;9.192;2022-12-18T06:11:49;-7.30;99.90
7934;DHT22;4012;48.896;9.192;2022-12-18T06:14:16;-7.30;99.90
7934;DHT22;4012;48.896;9.192;2022-12-18T06:16:42;-7.30;99.90
7934;DHT22;4012;48.896;9.192;2022-12-18T06:19:15;-7.30;99.90
7934;DHT22;4012;48.896;9.192;2022-12-18T06:21:41;-7.30;99.90
7934;DHT22;4012;48.896;9.192;2022-12-18T06:24:07;-7.30;99.90
7934;DHT22;4012;48.896;9.192;2022-12-18T06:26:33;-7.30;99.90
7934;DHT22;4012;48.896;9.192;2022-12-18T06:28:58;-7.30;99.90
7934;DHT22;4012;48.896;9.192;2022-12-18T06:31:25;-7.30;99.90
7934;DHT22;4012;48.896;9.192;2022-12-18T06:33:50;-7.30;99.90
7934;DHT22;4012;48.896;9.192;2022-12-18T06:36:16;-7.30;99.90
7934;DHT22;4012;48.896;9.192;2022-12-18T06:38:43;-7.30;99.90
7934;DHT22;4012;48.896;9.192;2022-12-18T06:41:17;-7.40;99.90
7934;DHT22;4012;48.896;9.192;2022-12-18T06:43:43;-7.40;99.90
7934;DHT22;4012;48.896;9.192;2022-12-18T06:46:09;-7.50;99.90
7934;DHT22;4012;48.896;9.192;2022-12-18T06:48:35;-7.60;99.90
7934;DHT22;4012;48.896;9.192;2022-12-18T06:51:01;-7.60;99.90
7934;DHT22;4012;48.896;9.192;2022-12-18T06:53:27;-7.70;99.90
7934;DHT22;4012;48.896;9.192;2022-12-18T06:55:58;-7.80;99.90
7934;DHT22;4012;48.896;9.192;2022-12-18T06:58:24;-7.80;99.90
7934;DHT22;4012;48.896;9.192;2022-12-18T07:00:49;-7.80;99.90
7934;DHT22;4012;48.896;9.192;2022-12-18T07:03:15;-7.80;99.90
7934;DHT22;4012;48.896;9.192;2022-12-18T07:05:41;-7.80;99.90
7934;DHT22;4012;48.896;9.192;2022-12-18T07:08:06;-7.80;99.90
7934;DHT22;4012;48.896;9.192;2022-12-18T07:10:32;-7.70;99.90
7934;DHT22;4012;48.896;9.192;2022-12-18T07:12:58;-7.70;99.90
7934;DHT22;4012;48.896;9.192;2022-12-18T07:15:23;-7.80;99.90
7934;DHT22;4012;48.896;9.192;2022-12-18T07:17:49;-7.80;99.90
7934;DHT22;4012;48.896;9.192;2022-12-18T07:20:14;-7.80;99.90
7934;DHT22;4012;48.896;9.192;2022-12-18T07:22:40;-7.80;99.90
7934;DHT22;4012;48.896;9.192;2022-12-18T07:25:06;-7.90;99.90
7934;DHT22;4012;48.896;9.192;2022-12-18T07:27:32;-7.90;99.90
7934;DHT22;4012;48.896;9.192;2022-12-18T07:29:57;-7.80;99.90
7934;DHT22;4012;48.896;9.192;2022-12-18T07:32:23;-7.70;99.90
7934;DHT22;4012;48.896;9.192;2022-12-18T07:34:49;-7.70;99.90
7934;DHT22;4012;48.896;9.192;2022-12-18T07:37:14;-7.70;99.90
7934;DHT22;4012;48.896;9.192;2022-12-18T07:39:40;-7.60;99.90
7934;DHT22;4012;48.896;9.192;2022-12-18T07:42:05;-7.50;99.90
7934;DHT22;4012;48.896;9.192;2022-12-18T07:44:49;-7.40;99.90
7934;DHT22;4012;48.896;9.192;2022-12-18T07:47:15;-7.30;99.90
7934;DHT22;4012;48.896;9.192;2022-12-18T07:49:41;-7.10;99.90
7934;DHT22;4012;48.896;9.192;2022-12-18T07:52:06;-7.10;99.90
7934;DHT22;4012;48.896;9.192;2022-12-18T07:54:32;-6.90;99.90
7934;DHT22;4012;48.896;9.192;2022-12-18T07:56:57;-6.70;99.90
7934;DHT22;4012;48.896;9.192;2022-12-18T07:59:23;-6.70;99.90
7934;DHT22;4012;48.896;9.192;2022-12-18T08:01:48;-6.60;99.90
7934;DHT22;4012;48.896;9.192;2022-12-18T08:04:14;-6.60;99.90
7934;DHT22;4012;48.896;9.192;2022-12-18T08:06:39;-6.50;99.90
7934;DHT22;4012;48.896;9.192;2022-12-18T08:09:05;-6.30;99.90
7934;DHT22;4012;48.896;9.192;2022-12-18T08:11:31;-6.30;99.90
7934;DHT22;4012;48.896;9.192;2022-12-18T08:13:57;-6.30;99.90
7934;DHT22;4012;48.896;9.192;2022-12-18T08:16:23;-6.20;99.90
7934;DHT22;4012;48.896;9.192;2022-12-18T08:18:49;-6.20;99.90
7934;DHT22;4012;48.896;9.192;2022-12-18T08:21:28;-6.30;99.90
7934;DHT22;4012;48.896;9.192;2022-12-18T08:23:55;-6.30;99.90
7934;DHT22;4012;48.896;9.192;2022-12-18T08:26:22;-6.40;99.90
7934;DHT22;4012;48.896;9.192;2022-12-18T08:28:49;-6.40;99.90
7934;DHT22;4012;48.896;9.192;2022-12-18T08:31:15;-6.40;99.90
7934;DHT22;4012;48.896;9.192;2022-12-18T08:33:41;-6.40;99.90
7934;DHT22;4012;48.896;9.192;2022-12-18T08:36:07;-6.30;99.90
7934;DHT22;4012;48.896;9.192;2022-12-18T08:38:34;-6.20;99.90
7934;DHT22;4012;48.896;9.192;2022-12-18T08:41:07;-6.10;99.90
7934;DHT22;4012;48.896;9.192;2022-12-18T08:43:34;-6.10;99.90
7934;DHT22;4012;48.896;9.192;2022-12-18T08:46:19;-5.90;99.90
7934;DHT22;4012;48.896;9.192;2022-12-18T08:48:45;-5.90;99.90
7934;DHT22;4012;48.896;9.192;2022-12-18T08:51:10;-5.70;99.90
7934;DHT22;4012;48.896;9.192;2022-12-18T08:53:36;-5.60;99.90
7934;DHT22;4012;48.896;9.192;2022-12-18T08:56:03;-5.50;99.90
7934;DHT22;4012;48.896;9.192;2022-12-18T08:58:29;-5.50;99.90
7934;DHT22;4012;48.896;9.192;2022-12-18T09:00:59;-5.50;99.90
7934;DHT22;4012;48.896;9.192;2022-12-18T09:03:24;-5.30;99.90
7934;DHT22;4012;48.896;9.192;2022-12-18T09:05:50;-5.20;99.90
7934;DHT22;4012;48.896;9.192;2022-12-18T09:08:15;-5.20;99.90
7934;DHT22;4012;48.896;9.192;2022-12-18T09:10:45;-5.00;99.90
7934;DHT22;4012;48.896;9.192;2022-12-18T09:13:12;-3.60;99.90
7934;DHT22;4012;48.896;9.192;2022-12-18T09:15:45;-1.60;99.90
7934;DHT22;4012;48.896;9.192;2022-12-18T09:18:11;-0.20;99.90
7934;DHT22;4012;48.896;9.192;2022-12-18T09:20:37;0.90;99.90
7934;DHT22;4012;48.896;9.192;2022-12-18T09:23:04;1.50;99.90
7934;DHT22;4012;48.896;9.192;2022-12-18T09:25:31;0.90;99.90
7934;DHT22;4012;48.896;9.192;2022-12-18T09:28:11;0.50;99.90
7934;DHT22;4012;48.896;9.192;2022-12-18T09:30:42;1.30;99.90
7934;DHT22;4012;48.896;9.192;2022-12-18T09:33:07;1.80;99.90
7934;DHT22;4012;48.896;9.192;2022-12-18T09:35:36;2.20;99.90
7934;DHT22;4012;48.896;9.192;2022-12-18T09:38:02;2.60;99.90
7934;DHT22;4012;48.896;9.192;2022-12-18T09:40:34;3.00;99.90
7934;DHT22;4012;48.896;9.192;2022-12-18T09:43:04;2.90;99.90
7934;DHT22;4012;48.896;9.192;2022-12-18T09:45:51;2.70;99.90
7934;DHT22;4012;48.896;9.192;2022-12-18T09:48:25;3.60;99.90
7934;DHT22;4012;48.896;9.192;2022-12-18T09:50:57;3.40;99.90
7934;DHT22;4012;48.896;9.192;2022-12-18T09:53:26;3.60;99.90
7934;DHT22;4012;48.896;9.192;2022-12-18T09:55:53;3.80;99.90
7934;DHT22;4012;48.896;9.192;2022-12-18T09:58:34;3.70;99.90
7934;DHT22;4012;48.896;9.192;2022-12-18T10:01:01;3.60;99.90
7934;DHT22;4012;48.896;9.192;2022-12-18T10:03:27;3.00;99.90
7934;DHT22;4012;48.896;9.192;2022-12-18T10:13:53;4.50;99.90
7934;DHT22;4012;48.896;9.192;2022-12-18T10:21:37;4.20;99.90
7934;DHT22;4012;48.896;9.192;2022-12-18T10:26:48;4.80;99.90
7934;DHT22;4012;48.896;9.192;2022-12-18T10:29:16;5.00;99.90
7934;DHT22;4012;48.896;9.192;2022-12-18T10:31:42;4.50;99.90
7934;DHT22;4012;48.896;9.192;2022-12-18T10:34:15;3.70;99.90
7934;DHT22;4012;48.896;9.192;2022-12-18T10:36:41;4.10;99.90
7934;DHT22;4012;48.896;9.192;2022-12-18T10:39:23;4.30;99.90
7934;DHT22;4012;48.896;9.192;2022-12-18T10:41:50;4.50;99.90
7934;DHT22;4012;48.896;9.192;2022-12-18T10:44:23;4.20;99.90
7934;DHT22;4012;48.896;9.192;2022-12-18T10:47:03;3.00;99.90
7934;DHT22;4012;48.896;9.192;2022-12-18T10:49:32;2.80;99.90
7934;DHT22;4012;48.896;9.192;2022-12-18T10:52:24;2.90;99.90
7934;DHT22;4012;48.896;9.192;2022-12-18T10:55:02;2.70;99.90
7934;DHT22;4012;48.896;9.192;2022-12-18T10:57:33;2.20;99.90
7934;DHT22;4012;48.896;9.192;2022-12-18T11:00:11;1.70;99.90
7934;DHT22;4012;48.896;9.192;2022-12-18T11:02:38;1.40;99.90
7934;DHT22;4012;48.896;9.192;2022-12-18T11:05:31;1.20;99.90
7934;DHT22;4012;48.896;9.192;2022-12-18T11:07:58;0.70;99.90
7934;DHT22;4012;48.896;9.192;2022-12-18T11:10:33;0.20;99.90
7934;DHT22;4012;48.896;9.192;2022-12-18T11:15:42;-0.30;99.90
7934;DHT22;4012;48.896;9.192;2022-12-18T11:18:17;-0.50;99.90
7934;DHT22;4012;48.896;9.192;2022-12-18T11:20:52;-0.60;99.90
7934;DHT22;4012;48.896;9.192;2022-12-18T11:23:21;-0.50;99.90
7934;DHT22;4012;48.896;9.192;2022-12-18T11:26:06;-0.90;99.90
7934;DHT22;4012;48.896;9.192;2022-12-18T11:31:25;-1.20;99.90
7934;DHT22;4012;48.896;9.192;2022-12-18T11:34:08;-0.80;99.90
7934;DHT22;4012;48.896;9.192;2022-12-18T11:36:40;-0.80;99.90
7934;DHT22;4012;48.896;9.192;2022-12-18T11:39:25;-0.80;99.90
7934;DHT22;4012;48.896;9.192;2022-12-18T11:42:04;-0.90;99.90
7934;DHT22;4012;48.896;9.192;2022-12-18T11:44:48;-1.10;99.90
7934;DHT22;4012;48.896;9.192;2022-12-18T11:47:24;-1.10;99.90
7934;DHT22;4012;48.896;9.192;2022-12-18T11:49:52;-1.10;99.90
7934;DHT22;4012;48.896;9.192;2022-12-18T11:54:58;-0.80;99.90
7934;DHT22;4012;48.896;9.192;2022-12-18T11:57:36;-0.60;99.90
7934;DHT22;4012;48.896;9.192;2022-12-18T12:13:38;-1.20;99.90
7934;DHT22;4012;48.896;9.192;2022-12-18T12:16:15;-0.80;99.90
7934;DHT22;4012;48.896;9.192;2022-12-18T12:19:00;-0.60;99.90
7934;DHT22;4012;48.896;9.192;2022-12-18T12:24:12;-1.10;99.90
7934;DHT22;4012;48.896;9.192;2022-12-18T12:40:06;-0.30;99.90
7934;DHT22;4012;48.896;9.192;2022-12-18T12:42:38;-0.30;99.90
7934;DHT22;4012;48.896;9.192;2022-12-18T12:45:37;-0.10;99.90
7934;DHT22;4012;48.896;9.192;2022-12-18T12:48:06;-0.30;99.90
7934;DHT22;4012;48.896;9.192;2022-12-18T12:50:34;-0.40;99.90
7934;DHT22;4012;48.896;9.192;2022-12-18T12:53:01;-0.30;99.90
7934;DHT22;4012;48.896;9.192;2022-12-18T12:55:30;-0.10;99.90
7934;DHT22;4012;48.896;9.192;2022-12-18T12:58:21;0.10;99.90
7934;DHT22;4012;48.896;9.192;2022-12-18T13:04:02;-0.30;99.90
7934;DHT22;4012;48.896;9.192;2022-12-18T13:06:44;0.00;99.90
7934;DHT22;4012;48.896;9.192;2022-12-18T13:09:11;0.00;99.90
7934;DHT22;4012;48.896;9.192;2022-12-18T13:11:45;0.10;99.90
7934;DHT22;4012;48.896;9.192;2022-12-18T13:14:35;0.20;99.90
7934;DHT22;4012;48.896;9.192;2022-12-18T13:20:08;0.00;99.90
7934;DHT22;4012;48.896;9.192;2022-12-18T13:22:37;-0.10;99.90
7934;DHT22;4012;48.896;9.192;2022-12-18T13:25:31;0.00;99.90
7934;DHT22;4012;48.896;9.192;2022-12-18T13:51:54;0.30;99.90
7934;DHT22;4012;48.896;9.192;2022-12-18T13:54:39;0.30;99.90
7934;DHT22;4012;48.896;9.192;2022-12-18T13:57:33;0.20;99.90
7934;DHT22;4012;48.896;9.192;2022-12-18T14:02:45;0.20;99.90
7934;DHT22;4012;48.896;9.192;2022-12-18T14:05:45;0.10;99.90
7934;DHT22;4012;48.896;9.192;2022-12-18T14:08:14;0.10;99.90
7934;DHT22;4012;48.896;9.192;2022-12-18T14:10:41;0.10;99.90
7934;DHT22;4012;48.896;9.192;2022-12-18T14:13:09;0.00;99.90
7934;DHT22;4012;48.896;9.192;2022-12-18T14:15:40;0.00;99.90
7934;DHT22;4012;48.896;9.192;2022-12-18T14:20:57;-0.10;99.90
7934;DHT22;4012;48.896;9.192;2022-12-18T14:23:30;-0.30;99.90
7934;DHT22;4012;48.896;9.192;2022-12-18T14:26:00;-0.60;99.90
7934;DHT22;4012;48.896;9.192;2022-12-18T14:28:26;-0.80;99.90
7934;DHT22;4012;48.896;9.192;2022-12-18T14:30:52;-1.00;99.90
7934;DHT22;4012;48.896;9.192;2022-12-18T14:33:28;-0.90;99.90
7934;DHT22;4012;48.896;9.192;2022-12-18T14:35:58;-1.00;99.90
7934;DHT22;4012;48.896;9.192;2022-12-18T14:38:32;-1.00;99.90
7934;DHT22;4012;48.896;9.192;2022-12-18T14:41:03;-0.80;99.90
7934;DHT22;4012;48.896;9.192;2022-12-18T14:43:32;-0.80;99.90
7934;DHT22;4012;48.896;9.192;2022-12-18T14:45:58;-0.70;99.90
7934;DHT22;4012;48.896;9.192;2022-12-18T14:48:35;-0.80;99.90
7934;DHT22;4012;48.896;9.192;2022-12-18T14:51:03;-0.80;99.90
7934;DHT22;4012;48.896;9.192;2022-12-18T14:53:56;-0.80;99.90
7934;DHT22;4012;48.896;9.192;2022-12-18T14:56:25;-0.80;99.90
7934;DHT22;4012;48.896;9.192;2022-12-18T14:58:58;-0.80;99.90
7934;DHT22;4012;48.896;9.192;2022-12-18T15:03:53;-0.90;99.90
7934;DHT22;4012;48.896;9.192;2022-12-18T15:06:31;-0.80;99.90
7934;DHT22;4012;48.896;9.192;2022-12-18T15:08:59;-0.90;99.90
7934;DHT22;4012;48.896;9.192;2022-12-18T15:13:58;-0.90;99.90
7934;DHT22;4012;48.896;9.192;2022-12-18T15:16:24;-1.00;99.90
7934;DHT22;4012;48.896;9.192;2022-12-18T15:18:50;-1.00;99.90
7934;DHT22;4012;48.896;9.192;2022-12-18T15:21:19;-1.10;99.90
7934;DHT22;4012;48.896;9.192;2022-12-18T15:23:48;-1.10;99.90
7934;DHT22;4012;48.896;9.192;2022-12-18T15:26:16;-1.10;99.90
7934;DHT22;4012;48.896;9.192;2022-12-18T15:28:51;-1.10;99.90
7934;DHT22;4012;48.896;9.192;2022-12-18T15:36:22;-1.20;99.90
7934;DHT22;4012;48.896;9.192;2022-12-18T15:38:52;-1.20;99.90
7934;DHT22;4012;48.896;9.192;2022-12-18T15:41:20;-1.20;99.90
7934;DHT22;4012;48.896;9.192;2022-12-18T15:43:48;-1.30;99.90
7934;DHT22;4012;48.896;9.192;2022-12-18T15:46:19;-1.40;99.90
7934;DHT22;4012;48.896;9.192;2022-12-18T15:48:47;-1.40;99.90
7934;DHT22;4012;48.896;9.192;2022-12-18T15:51:39;-1.40;99.90
7934;DHT22;4012;48.896;9.192;2022-12-18T15:54:08;-1.30;99.90
7934;DHT22;4012;48.896;9.192;2022-12-18T15:56:36;-1.40;99.90
7934;DHT22;4012;48.896;9.192;2022-12-18T15:59:21;-1.40;99.90
7934;DHT22;4012;48.896;9.192;2022-12-18T16:01:49;-1.40;99.90
7934;DHT22;4012;48.896;9.192;2022-12-18T16:04:18;-1.40;99.90
7934;DHT22;4012;48.896;9.192;2022-12-18T16:06:48;-1.40;99.90
7934;DHT22;4012;48.896;9.192;2022-12-18T16:09:13;-1.50;99.90
7934;DHT22;4012;48.896;9.192;2022-12-18T16:11:42;-1.50;99.90
7934;DHT22;4012;48.896;9.192;2022-12-18T16:14:26;-1.60;99.90
7934;DHT22;4012;48.896;9.192;2022-12-18T16:16:54;-1.60;99.90
7934;DHT22;4012;48.896;9.192;2022-12-18T16:19:21;-1.70;99.90
7934;DHT22;4012;48.896;9.192;2022-12-18T16:21:47;-1.80;99.90
7934;DHT22;4012;48.896;9.192;2022-12-18T16:24:19;-1.70;99.90
7934;DHT22;4012;48.896;9.192;2022-12-18T16:26:47;-1.70;99.90
7934;DHT22;4012;48.896;9.192;2022-12-18T16:29:13;-1.70;99.90
7934;DHT22;4012;48.896;9.192;2022-12-18T16:31:39;-1.70;99.90
7934;DHT22;4012;48.896;9.192;2022-12-18T16:34:24;-1.70;99.90
7934;DHT22;4012;48.896;9.192;2022-12-18T16:36:59;-1.80;99.90
7934;DHT22;4012;48.896;9.192;2022-12-18T16:39:25;-1.80;99.90
7934;DHT22;4012;48.896;9.192;2022-12-18T16:41:51;-1.80;99.90
7934;DHT22;4012;48.896;9.192;2022-12-18T16:44:17;-1.90;99.90
7934;DHT22;4012;48.896;9.192;2022-12-18T16:46:43;-1.90;99.90
7934;DHT22;4012;48.896;9.192;2022-12-18T16:49:11;-1.80;99.90
7934;DHT22;4012;48.896;9.192;2022-12-18T16:51:37;-1.90;99.90
7934;DHT22;4012;48.896;9.192;2022-12-18T16:54:03;-1.80;99.90
7934;DHT22;4012;48.896;9.192;2022-12-18T16:56:29;-1.80;99.90
7934;DHT22;4012;48.896;9.192;2022-12-18T16:58:57;-1.90;99.90
7934;DHT22;4012;48.896;9.192;2022-12-18T17:01:23;-1.90;99.90
7934;DHT22;4012;48.896;9.192;2022-12-18T17:03:58;-1.90;99.90
7934;DHT22;4012;48.896;9.192;2022-12-18T17:06:26;-1.90;99.90
7934;DHT22;4012;48.896;9.192;2022-12-18T17:08:56;-1.90;99.90
7934;DHT22;4012;48.896;9.192;2022-12-18T17:11:23;-1.90;99.90
7934;DHT22;4012;48.896;9.192;2022-12-18T17:13:49;-1.90;99.90
7934;DHT22;4012;48.896;9.192;2022-12-18T17:16:15;-1.90;99.90
7934;DHT22;4012;48.896;9.192;2022-12-18T17:18:42;-1.90;99.90
7934;DHT22;4012;48.896;9.192;2022-12-18T17:21:09;-1.90;99.90
7934;DHT22;4012;48.896;9.192;2022-12-18T17:23:36;-2.00;99.90
7934;DHT22;4012;48.896;9.192;2022-12-18T17:26:02;-1.90;99.90
7934;DHT22;4012;48.896;9.192;2022-12-18T17:28:29;-1.80;99.90
7934;DHT22;4012;48.896;9.192;2022-12-18T17:30:56;-1.80;99.90
7934;DHT22;4012;48.896;9.192;2022-12-18T17:33:22;-1.80;99.90
7934;DHT22;4012;48.896;9.192;2022-12-18T17:35:48;-1.70;99.90
7934;DHT22;4012;48.896;9.192;2022-12-18T17:38:14;-1.70;99.90
7934;DHT22;4012;48.896;9.192;2022-12-18T17:40:40;-1.80;99.90
7934;DHT22;4012;48.896;9.192;2022-12-18T17:43:07;-1.80;99.90
7934;DHT22;4012;48.896;9.192;2022-12-18T17:45:37;-1.80;99.90
7934;DHT22;4012;48.896;9.192;2022-12-18T17:48:04;-1.80;99.90
7934;DHT22;4012;48.896;9.192;2022-12-18T17:50:32;-1.80;99.90
7934;DHT22;4012;48.896;9.192;2022-12-18T17:52:58;-1.90;99.90
7934;DHT22;4012;48.896;9.192;2022-12-18T17:55:24;-1.80;99.90
7934;DHT22;4012;48.896;9.192;2022-12-18T17:57:50;-1.70;99.90
7934;DHT22;4012;48.896;9.192;2022-12-18T18:00:16;-1.80;99.90
7934;DHT22;4012;48.896;9.192;2022-12-18T18:02:42;-1.90;99.90
7934;DHT22;4012;48.896;9.192;2022-12-18T18:05:08;-1.90;99.90
7934;DHT22;4012;48.896;9.192;2022-12-18T18:07:34;-1.80;99.90
7934;DHT22;4012;48.896;9.192;2022-12-18T18:09:59;-1.90;99.90
7934;DHT22;4012;48.896;9.192;2022-12-18T18:12:25;-1.90;99.90
7934;DHT22;4012;48.896;9.192;2022-12-18T18:15:09;-1.80;99.90
7934;DHT22;4012;48.896;9.192;2022-12-18T18:17:35;-1.80;99.90
7934;DHT22;4012;48.896;9.192;2022-12-18T18:20:01;-1.80;99.90
7934;DHT22;4012;48.896;9.192;2022-12-18T18:22:27;-1.80;99.90
7934;DHT22;4012;48.896;9.192;2022-12-18T18:24:52;-1.80;99.90
7934;DHT22;4012;48.896;9.192;2022-12-18T18:27:18;-1.80;99.90